Time;durP1;ratioP1;P1;durP2;ratioP2;P2;SDS_P1;SDS_P2;PMS_P1;PMS_P2;Temp;Humidity;BMP_temperature;BMP_pressure;BME280_temperature;BME280_humidity;BME280_pressure;Samples;Min_cycle;Max_cycle;Signal;HPM_P1;HPM_P2
2023/12/20 00:00:27;;;;;;;26.10;15.98;;;7.80;1.00;;;;;;5061215;28;20227;-83
2023/12/20 00:02:55;;;;;;;20.98;15.48;;;7.70;1.00;;;;;;5065971;28;20293;-84
2023/12/20 00:05:27;;;;;;;22.77;16.13;;;7.80;1.00;;;;;;5076367;28;20239;-82
2023/12/20 00:07:56;;;;;;;21.50;15.07;;;7.90;1.00;;;;;;5066046;28;20588;-82
2023/12/20 00:10:24;;;;;;;20.17;14.60;;;7.90;1.00;;;;;;5064157;28;20739;-83
2023/12/20 00:12:53;;;;;;;21.08;14.90;;;7.90;1.00;;;;;;5066108;28;20252;-82
2023/12/20 00:15:22;;;;;;;17.23;13.30;;;7.90;1.00;;;;;;5059213;28;20726;-82
2023/12/20 00:17:52;;;;;;;20.48;13.98;;;7.80;1.00;;;;;;5063513;28;20243;-83
2023/12/20 00:20:20;;;;;;;17.75;13.95;;;7.80;1.00;;;;;;5067291;28;20235;-82
2023/12/20 00:22:49;;;;;;;18.65;13.93;;;7.90;1.00;;;;;;5067087;28;20243;-83
2023/12/20 00:25:18;;;;;;;18.65;14.27;;;7.90;1.00;;;;;;5065217;28;20309;-82
2023/12/20 00:27:47;;;;;;;17.05;13.85;;;7.90;1.00;;;;;;5065169;28;20224;-82
2023/12/20 00:30:16;;;;;;;17.20;13.57;;;7.90;1.00;;;;;;5065459;28;20311;-82
2023/12/20 00:32:46;;;;;;;20.65;13.95;;;7.90;1.00;;;;;;5068493;28;20239;-81
2023/12/20 00:35:16;;;;;;;19.70;13.95;;;7.90;1.00;;;;;;5059908;28;20438;-79
2023/12/20 00:37:45;;;;;;;16.83;12.57;;;7.90;1.00;;;;;;5063648;28;20244;-77
2023/12/20 00:40:15;;;;;;;19.05;13.52;;;7.90;1.00;;;;;;5062021;28;20229;-72
2023/12/20 00:42:44;;;;;;;17.63;13.05;;;7.90;1.00;;;;;;5072565;28;20421;-75
2023/12/20 00:45:12;;;;;;;16.90;13.27;;;7.90;1.00;;;;;;5064775;28;20228;-74
2023/12/20 00:47:41;;;;;;;16.70;12.38;;;7.90;1.00;;;;;;5062836;28;20228;-73
2023/12/20 00:50:10;;;;;;;15.90;12.57;;;7.90;1.00;;;;;;5065955;28;20788;-74
2023/12/20 00:52:40;;;;;;;15.68;12.77;;;7.90;1.00;;;;;;5065711;28;20216;-74
2023/12/20 00:55:09;;;;;;;16.02;12.02;;;7.90;1.00;;;;;;5064610;28;20221;-74
2023/12/20 00:57:37;;;;;;;16.85;12.50;;;7.90;1.00;;;;;;5062210;28;20311;-74
2023/12/20 01:00:09;;;;;;;15.68;11.98;;;7.90;1.00;;;;;;5057756;28;20228;-75
2023/12/20 01:02:38;;;;;;;16.55;12.90;;;7.80;1.00;;;;;;5065920;28;20219;-76
2023/12/20 01:05:09;;;;;;;16.85;12.60;;;7.80;1.00;;;;;;5059140;28;20216;-76
2023/12/20 01:07:37;;;;;;;16.25;12.68;;;7.80;1.00;;;;;;5056191;28;20216;-78
2023/12/20 01:10:08;;;;;;;16.85;13.70;;;7.80;1.00;;;;;;5065394;28;20307;-79
2023/12/20 01:12:37;;;;;;;17.05;13.48;;;7.90;1.00;;;;;;5056262;28;20232;-77
2023/12/20 01:15:06;;;;;;;18.45;13.73;;;7.90;1.00;;;;;;5057252;28;20231;-77
2023/12/20 01:17:35;;;;;;;15.77;12.77;;;7.90;1.00;;;;;;5059225;28;20224;-71
2023/12/20 01:20:04;;;;;;;15.13;12.15;;;7.90;1.00;;;;;;5061136;28;20677;-77
2023/12/20 01:22:35;;;;;;;16.98;12.05;;;7.90;1.00;;;;;;5061348;28;20243;-76
2023/12/20 01:25:05;;;;;;;16.70;12.95;;;7.90;1.00;;;;;;5066751;28;20224;-78
2023/12/20 01:27:36;;;;;;;19.70;12.90;;;7.90;1.00;;;;;;5066829;28;20228;-73
2023/12/20 01:30:07;;;;;;;15.77;13.07;;;7.90;1.00;;;;;;5065637;28;20231;-73
2023/12/20 01:32:37;;;;;;;17.08;12.60;;;7.80;1.00;;;;;;5072420;28;20641;-75
2023/12/20 01:35:07;;;;;;;15.38;12.43;;;7.90;1.00;;;;;;5067721;28;20812;-73
2023/12/20 01:37:36;;;;;;;17.15;12.68;;;7.90;1.00;;;;;;5071162;28;20244;-76
2023/12/20 01:40:07;;;;;;;20.40;13.15;;;7.90;1.00;;;;;;5060298;28;20224;-78
2023/12/20 01:42:39;;;;;;;16.50;13.02;;;7.90;1.00;;;;;;5072216;28;20258;-79
2023/12/20 01:45:09;;;;;;;14.95;12.30;;;8.00;1.00;;;;;;5073140;28;20224;-78
2023/12/20 01:47:42;;;;;;;16.45;12.82;;;8.00;1.00;;;;;;5071812;28;20220;-77
2023/12/20 01:50:12;;;;;;;16.10;12.65;;;8.00;1.00;;;;;;5072344;28;20256;-74
2023/12/20 01:52:42;;;;;;;16.33;12.23;;;8.00;1.00;;;;;;5066937;28;20236;-76
2023/12/20 01:55:13;;;;;;;16.20;11.80;;;8.00;1.00;;;;;;5063376;28;20311;-75
2023/12/20 01:57:44;;;;;;;16.02;11.32;;;8.00;1.00;;;;;;5065758;28;20297;-76
2023/12/20 02:00:15;;;;;;;16.55;12.38;;;7.90;1.00;;;;;;5062710;28;20254;-75
2023/12/20 02:02:46;;;;;;;16.35;12.55;;;8.00;1.00;;;;;;5064319;28;20324;-76
2023/12/20 02:05:15;;;;;;;15.77;12.20;;;7.90;1.00;;;;;;5056442;28;20233;-75
2023/12/20 02:07:43;;;;;;;15.10;12.57;;;8.00;1.00;;;;;;5065553;28;20220;-77
2023/12/20 02:10:12;;;;;;;13.88;11.30;;;8.00;1.00;;;;;;5060688;28;20881;-76
2023/12/20 02:12:43;;;;;;;14.77;11.95;;;7.90;1.00;;;;;;5064082;28;20232;-77
2023/12/20 02:15:11;;;;;;;14.80;12.20;;;7.90;1.00;;;;;;5063940;28;20228;-76
2023/12/20 02:17:41;;;;;;;15.48;12.23;;;7.90;1.00;;;;;;5062931;28;20296;-78
2023/12/20 02:20:10;;;;;;;16.20;12.48;;;8.00;1.00;;;;;;5065760;28;20310;-76
2023/12/20 02:22:40;;;;;;;14.35;11.60;;;8.00;1.00;;;;;;5061285;28;20699;-76
2023/12/20 02:25:08;;;;;;;14.15;10.93;;;7.90;1.00;;;;;;5058983;28;20239;-75
2023/12/20 02:27:37;;;;;;;15.25;11.73;;;7.90;1.00;;;;;;5087928;28;20221;-76
2023/12/20 02:30:07;;;;;;;15.60;12.15;;;7.90;1.00;;;;;;5064063;28;20781;-75
2023/12/20 02:32:36;;;;;;;13.75;10.68;;;7.90;1.00;;;;;;5064007;28;20324;-76
2023/12/20 02:35:05;;;;;;;14.10;11.18;;;8.00;1.00;;;;;;5061347;28;20220;-76
2023/12/20 02:37:34;;;;;;;12.48;10.48;;;7.90;1.00;;;;;;5063512;28;20223;-77
2023/12/20 02:40:10;;;;;;;13.05;10.65;;;7.90;1.00;;;;;;5059582;28;20221;-75
2023/12/20 02:42:39;;;;;;;12.52;10.98;;;7.90;1.00;;;;;;5062909;28;20251;-76
2023/12/20 02:45:08;;;;;;;11.95;9.73;;;7.90;1.00;;;;;;5060119;28;20216;-78
2023/12/20 02:47:37;;;;;;;11.20;8.60;;;7.90;1.00;;;;;;5061763;28;20328;-78
2023/12/20 02:50:06;;;;;;;9.18;8.20;;;7.90;1.00;;;;;;5058765;28;20699;-78
2023/12/20 02:52:35;;;;;;;9.05;6.95;;;8.00;1.00;;;;;;5068514;28;20263;-77
2023/12/20 02:55:04;;;;;;;9.43;6.97;;;7.80;1.00;;;;;;5065582;28;20224;-77
2023/12/20 02:57:36;;;;;;;8.70;6.50;;;7.80;1.00;;;;;;5060852;28;20344;-75
2023/12/20 03:00:06;;;;;;;9.00;6.15;;;7.90;1.00;;;;;;5063370;28;20779;-76
2023/12/20 03:02:35;;;;;;;7.00;6.00;;;7.90;1.00;;;;;;5058584;28;20364;-76
2023/12/20 03:05:04;;;;;;;7.35;5.50;;;7.90;1.00;;;;;;5059059;28;20217;-76
2023/12/20 03:07:32;;;;;;;7.53;5.95;;;7.90;1.00;;;;;;5096830;28;20239;-76
2023/12/20 03:10:01;;;;;;;6.32;5.35;;;7.90;1.00;;;;;;5064853;28;20647;-78
2023/12/20 03:12:48;;;;;;;6.65;5.20;;;8.00;1.00;;;;;;5046420;28;20224;-76
2023/12/20 03:15:17;;;;;;;6.57;4.88;;;8.00;1.00;;;;;;5080214;28;20227;-76
2023/12/20 03:17:46;;;;;;;7.20;5.03;;;8.00;1.00;;;;;;5066160;28;20216;-78
2023/12/20 03:20:15;;;;;;;7.20;5.00;;;8.00;1.00;;;;;;5065339;28;20239;-79
2023/12/20 03:22:44;;;;;;;6.10;4.82;;;7.90;1.00;;;;;;5059245;28;20221;-78
2023/12/20 03:25:12;;;;;;;6.82;5.03;;;8.00;1.00;;;;;;5059018;28;20230;-80
2023/12/20 03:27:41;;;;;;;5.28;4.07;;;8.00;1.00;;;;;;5066890;28;20654;-79
2023/12/20 03:30:12;;;;;;;6.88;4.60;;;7.90;1.00;;;;;;5061771;28;20229;-80
2023/12/20 03:32:41;;;;;;;5.45;4.40;;;7.90;1.00;;;;;;5061182;28;20298;-77
2023/12/20 03:35:10;;;;;;;5.68;3.95;;;8.00;1.00;;;;;;5061600;28;20228;-78
2023/12/20 03:37:38;;;;;;;4.80;3.92;;;8.00;1.00;;;;;;5059343;28;20257;-78
2023/12/20 03:40:08;;;;;;;5.65;3.80;;;8.00;1.00;;;;;;5056512;28;20321;-77
2023/12/20 03:42:36;;;;;;;4.60;3.80;;;7.90;1.00;;;;;;5063536;28;20242;-76
2023/12/20 03:45:06;;;;;;;5.22;3.83;;;7.90;1.00;;;;;;5078195;28;20307;-76
2023/12/20 03:47:37;;;;;;;4.57;3.78;;;8.00;1.00;;;;;;5047477;28;20696;-74
2023/12/20 03:50:07;;;;;;;4.95;4.28;;;7.90;1.00;;;;;;5090416;28;20224;-74
2023/12/20 03:52:35;;;;;;;5.25;4.10;;;8.00;1.00;;;;;;5069537;28;20222;-76
2023/12/20 03:55:05;;;;;;;6.80;4.90;;;8.00;1.00;;;;;;5063131;28;20277;-76
2023/12/20 03:57:33;;;;;;;5.93;4.43;;;8.00;1.00;;;;;;5069085;28;20310;-74
2023/12/20 04:00:02;;;;;;;5.93;4.30;;;8.10;1.00;;;;;;5063125;28;20220;-78
2023/12/20 04:02:41;;;;;;;5.43;4.35;;;8.10;1.00;;;;;;5064220;28;20226;-76
2023/12/20 04:05:10;;;;;;;4.97;4.40;;;8.10;1.00;;;;;;5061413;28;20310;-77
2023/12/20 04:07:39;;;;;;;6.13;4.78;;;8.00;1.00;;;;;;5062602;28;20227;-74
2023/12/20 04:10:09;;;;;;;5.95;4.38;;;8.00;1.00;;;;;;5063779;28;20228;-75
2023/12/20 04:12:56;;;;;;;6.60;4.85;;;8.00;1.00;;;;;;5061259;28;20227;-76
2023/12/20 04:15:26;;;;;;;9.32;5.70;;;8.00;1.00;;;;;;5061836;28;20235;-76
2023/12/20 04:17:59;;;;;;;9.32;6.05;;;8.10;1.00;;;;;;5062346;28;20288;-75
2023/12/20 04:20:28;;;;;;;6.93;5.88;;;8.00;1.00;;;;;;5063558;28;20228;-77
2023/12/20 04:22:56;;;;;;;7.18;6.00;;;8.00;1.00;;;;;;5064079;28;20717;-78
2023/12/20 04:25:25;;;;;;;8.57;6.63;;;8.10;1.00;;;;;;5059515;28;20753;-76
2023/12/20 04:27:53;;;;;;;8.60;6.97;;;8.10;1.00;;;;;;5057840;28;20232;-75
2023/12/20 04:30:22;;;;;;;9.77;7.20;;;8.10;1.00;;;;;;5054679;28;20236;-76
2023/12/20 04:32:50;;;;;;;8.75;7.18;;;8.10;1.00;;;;;;5053832;28;20315;-79
2023/12/20 04:35:20;;;;;;;9.35;8.10;;;8.10;1.00;;;;;;5062667;28;20238;-80
2023/12/20 04:37:50;;;;;;;9.10;7.97;;;8.10;1.00;;;;;;5077660;28;20223;-78
2023/12/20 04:40:19;;;;;;;8.98;7.78;;;8.00;1.00;;;;;;5061330;28;20307;-79
2023/12/20 04:42:47;;;;;;;10.80;9.55;;;8.00;1.00;;;;;;5064445;28;20212;-81
2023/12/20 04:45:17;;;;;;;11.32;9.48;;;8.00;1.00;;;;;;5073361;28;20324;-78
2023/12/20 04:47:46;;;;;;;9.60;8.40;;;8.00;1.00;;;;;;5061550;28;20228;-76
2023/12/20 04:50:16;;;;;;;10.50;8.77;;;8.00;1.00;;;;;;5060329;28;20228;-75
2023/12/20 04:52:46;;;;;;;10.43;8.60;;;8.10;1.00;;;;;;5067095;28;20220;-73
2023/12/20 04:55:15;;;;;;;10.18;7.90;;;8.00;1.00;;;;;;5061714;28;20231;-76
2023/12/20 04:57:44;;;;;;;10.23;8.30;;;8.10;1.00;;;;;;5064579;28;20212;-75
2023/12/20 05:00:15;;;;;;;10.55;8.60;;;8.00;1.00;;;;;;5067453;28;20220;-76
2023/12/20 05:02:44;;;;;;;9.13;8.23;;;8.00;1.00;;;;;;5064573;28;20224;-75
2023/12/20 05:05:15;;;;;;;8.57;7.68;;;8.00;1.00;;;;;;5058014;28;20235;-77
2023/12/20 05:07:43;;;;;;;10.15;8.50;;;8.00;1.00;;;;;;5066125;28;20587;-77
2023/12/20 05:10:14;;;;;;;10.02;8.63;;;8.00;1.00;;;;;;5062598;28;20231;-76
2023/12/20 05:12:43;;;;;;;11.45;9.25;;;8.10;1.00;;;;;;5055585;28;20237;-77
2023/12/20 05:15:12;;;;;;;10.68;8.77;;;7.90;1.00;;;;;;5064903;28;20252;-77
2023/12/20 05:17:40;;;;;;;11.07;9.10;;;7.90;1.00;;;;;;5066645;28;20215;-77
2023/12/20 05:20:10;;;;;;;10.40;9.23;;;8.00;1.00;;;;;;5080107;28;20217;-77
2023/12/20 05:22:38;;;;;;;11.18;9.55;;;8.00;1.00;;;;;;5061710;28;20232;-78
2023/12/20 05:25:07;;;;;;;11.57;9.35;;;8.00;1.00;;;;;;5057842;28;20706;-76
2023/12/20 05:27:37;;;;;;;12.25;9.68;;;7.90;1.00;;;;;;5060962;28;20224;-76
2023/12/20 05:30:07;;;;;;;13.48;10.18;;;8.00;1.00;;;;;;5055860;28;20219;-75
2023/12/20 05:32:36;;;;;;;10.52;9.35;;;8.00;1.00;;;;;;5063305;28;20224;-76
2023/12/20 05:35:05;;;;;;;11.15;9.35;;;8.00;1.00;;;;;;5062146;28;20227;-77
2023/12/20 05:37:33;;;;;;;13.88;10.00;;;8.00;1.00;;;;;;5065353;28;20274;-76
2023/12/20 05:40:02;;;;;;;10.88;9.52;;;8.00;1.00;;;;;;5064568;28;20228;-77
2023/12/20 05:42:31;;;;;;;10.98;9.68;;;8.00;1.00;;;;;;5059562;28;20397;-77
2023/12/20 05:45:01;;;;;;;11.88;9.68;;;8.10;1.00;;;;;;5064339;28;20216;-80
2023/12/20 05:47:30;;;;;;;10.68;9.35;;;8.10;1.00;;;;;;5062378;28;20224;-79
2023/12/20 05:49:59;;;;;;;10.40;9.05;;;8.10;1.00;;;;;;5066716;28;20695;-78
2023/12/20 05:52:27;;;;;;;11.15;9.95;;;8.00;1.00;;;;;;5067265;28;20658;-77
2023/12/20 05:54:57;;;;;;;11.75;9.63;;;8.00;1.00;;;;;;5058102;28;20232;-76
2023/12/20 05:57:26;;;;;;;10.60;9.50;;;8.00;1.00;;;;;;5064714;28;20711;-76
2023/12/20 05:59:55;;;;;;;11.55;9.77;;;8.00;1.00;;;;;;5062851;28;20228;-74
2023/12/20 06:02:25;;;;;;;10.50;9.07;;;8.00;1.00;;;;;;5063830;28;20228;-75
2023/12/20 06:04:53;;;;;;;11.52;9.95;;;8.00;1.00;;;;;;5058306;28;20300;-75
2023/12/20 06:07:22;;;;;;;12.23;9.85;;;8.00;1.00;;;;;;5056495;28;20225;-73
2023/12/20 06:09:50;;;;;;;10.70;9.20;;;8.10;1.00;;;;;;5060314;28;20232;-77
2023/12/20 06:12:19;;;;;;;11.48;9.90;;;8.00;1.00;;;;;;5060815;28;20220;-75
2023/12/20 06:14:47;;;;;;;12.43;10.70;;;8.10;1.00;;;;;;5063357;28;20771;-78
2023/12/20 06:17:16;;;;;;;11.90;10.00;;;8.00;1.00;;;;;;5059936;28;20308;-74
2023/12/20 06:19:48;;;;;;;12.35;9.77;;;8.10;1.00;;;;;;5064903;28;20242;-77
2023/12/20 06:22:16;;;;;;;13.05;9.38;;;8.10;1.00;;;;;;5062659;28;20632;-77
2023/12/20 06:24:45;;;;;;;11.73;9.93;;;8.00;1.00;;;;;;5063584;28;20226;-76
2023/12/20 06:27:14;;;;;;;12.60;9.95;;;8.00;1.00;;;;;;5061133;28;21570;-77
2023/12/20 06:29:44;;;;;;;13.60;10.80;;;8.10;1.00;;;;;;5056803;28;20254;-78
2023/12/20 06:32:12;;;;;;;13.70;11.05;;;8.10;1.00;;;;;;5066780;28;20224;-75
2023/12/20 06:34:41;;;;;;;15.05;11.65;;;8.10;1.00;;;;;;5052401;28;20319;-76
2023/12/20 06:37:11;;;;;;;19.45;12.75;;;8.10;1.00;;;;;;5061475;28;20289;-77
2023/12/20 06:39:39;;;;;;;15.82;12.50;;;8.10;1.00;;;;;;5062667;28;20242;-76
2023/12/20 06:42:08;;;;;;;14.35;12.60;;;8.10;1.00;;;;;;5091365;28;20272;-75
2023/12/20 06:44:37;;;;;;;16.38;12.75;;;8.10;1.00;;;;;;5093025;28;20662;-75
2023/12/20 06:47:05;;;;;;;15.68;12.07;;;8.10;1.00;;;;;;5060898;28;20217;-77
2023/12/20 06:49:34;;;;;;;15.35;12.15;;;8.10;1.00;;;;;;5062164;28;20290;-76
2023/12/20 06:52:03;;;;;;;14.75;12.30;;;8.10;1.00;;;;;;5057345;28;20220;-75
2023/12/20 06:54:33;;;;;;;18.02;12.10;;;8.10;1.00;;;;;;5063737;28;20316;-74
2023/12/20 06:57:04;;;;;;;14.15;12.00;;;8.10;1.00;;;;;;5066577;28;20253;-74
2023/12/20 06:59:33;;;;;;;12.30;11.00;;;8.20;1.00;;;;;;5062647;28;20307;-75
2023/12/20 07:02:01;;;;;;;14.70;11.48;;;8.10;1.00;;;;;;5061060;28;20229;-76
2023/12/20 07:04:30;;;;;;;14.82;11.98;;;8.10;1.00;;;;;;5065542;28;20220;-75
2023/12/20 07:07:00;;;;;;;12.65;11.00;;;8.20;1.00;;;;;;5078037;28;20265;-76
2023/12/20 07:09:29;;;;;;;13.02;11.00;;;8.20;1.00;;;;;;5059466;28;20280;-79
2023/12/20 07:11:59;;;;;;;13.95;11.68;;;8.10;1.00;;;;;;5062891;28;20224;-79
2023/12/20 07:14:29;;;;;;;18.63;12.43;;;8.10;1.00;;;;;;5061445;28;20297;-79
2023/12/20 07:16:58;;;;;;;14.05;12.27;;;8.10;1.00;;;;;;5058414;28;20221;-78
2023/12/20 07:19:26;;;;;;;14.55;11.93;;;8.10;1.00;;;;;;5053881;28;20218;-76
2023/12/20 07:21:55;;;;;;;15.05;11.45;;;8.10;1.00;;;;;;5062217;28;20882;-81
2023/12/20 07:24:24;;;;;;;15.57;11.77;;;8.10;1.00;;;;;;5062319;28;20296;-80
2023/12/20 07:26:53;;;;;;;14.88;11.73;;;8.10;1.00;;;;;;5059939;28;20966;-80
2023/12/20 07:29:23;;;;;;;13.05;11.40;;;8.10;1.00;;;;;;5074306;28;20296;-80
2023/12/20 07:31:52;;;;;;;13.73;11.43;;;8.10;1.00;;;;;;5081863;28;20653;-82
2023/12/20 07:34:20;;;;;;;14.15;11.15;;;8.10;1.00;;;;;;5059268;28;20282;-81
2023/12/20 07:36:49;;;;;;;13.88;11.95;;;8.20;1.00;;;;;;5059501;28;20923;-78
2023/12/20 07:39:18;;;;;;;12.80;11.02;;;8.10;1.00;;;;;;5054174;28;20247;-73
2023/12/20 07:41:48;;;;;;;13.93;11.68;;;8.10;1.00;;;;;;5052635;28;20965;-77
2023/12/20 07:44:16;;;;;;;14.38;10.65;;;8.20;1.00;;;;;;5057970;28;20883;-77
2023/12/20 07:46:48;;;;;;;23.33;17.80;;;8.20;1.00;;;;;;5091110;28;20240;-79
2023/12/20 07:49:21;;;;;;;16.38;14.13;;;8.20;1.00;;;;;;5057727;28;20231;-76
2023/12/20 07:51:49;;;;;;;14.10;11.45;;;8.10;1.00;;;;;;5055572;28;20311;-79
2023/12/20 07:54:18;;;;;;;13.77;11.05;;;8.10;1.00;;;;;;5067057;28;20263;-78
2023/12/20 07:56:47;;;;;;;14.20;11.88;;;8.10;1.00;;;;;;5063338;28;20249;-79
2023/12/20 07:59:16;;;;;;;12.57;9.98;;;8.10;1.00;;;;;;5057805;28;20220;-80
2023/12/20 08:01:58;;;;;;;11.10;8.85;;;8.00;1.00;;;;;;5057266;28;20221;-79
2023/12/20 08:04:28;;;;;;;11.57;8.85;;;8.00;1.00;;;;;;5039787;28;20311;-77
2023/12/20 08:06:56;;;;;;;10.52;8.90;;;8.00;1.00;;;;;;5046474;28;20236;-78
2023/12/20 08:09:25;;;;;;;12.32;9.52;;;8.00;1.00;;;;;;5038725;28;20338;-76
2023/12/20 08:11:53;;;;;;;9.80;8.55;;;8.00;1.00;;;;;;5043983;28;20216;-78
2023/12/20 08:14:22;;;;;;;11.23;8.60;;;8.10;1.00;;;;;;5042130;28;20240;-83
2023/12/20 08:16:51;;;;;;;11.52;9.35;;;8.10;1.00;;;;;;5042536;28;20965;-83
2023/12/20 08:19:21;;;;;;;12.60;9.77;;;8.10;1.00;;;;;;5057638;28;20227;-84
2023/12/20 08:21:50;;;;;;;12.82;9.00;;;8.10;1.00;;;;;;5081837;28;20228;-81
2023/12/20 08:24:19;;;;;;;10.52;8.70;;;8.10;1.00;;;;;;5053512;28;20224;-81
2023/12/20 08:26:47;;;;;;;10.88;9.15;;;8.00;1.00;;;;;;5064481;28;20299;-81
2023/12/20 08:29:15;;;;;;;11.18;9.10;;;8.10;1.00;;;;;;5060709;28;20235;-79
2023/12/20 08:31:43;;;;;;;12.40;9.05;;;8.00;1.00;;;;;;5059866;28;20221;-80
2023/12/20 08:34:14;;;;;;;12.18;9.50;;;8.10;1.00;;;;;;5059850;28;20282;-82
2023/12/20 08:36:45;;;;;;;13.93;10.07;;;8.10;1.00;;;;;;5062069;28;20323;-78
2023/12/20 08:39:13;;;;;;;13.30;9.07;;;8.10;1.00;;;;;;5068417;28;20220;-80
2023/12/20 08:41:42;;;;;;;15.65;9.45;;;8.00;1.00;;;;;;5067868;28;20310;-81
2023/12/20 08:44:11;;;;;;;10.82;8.95;;;8.00;1.00;;;;;;5064959;28;20251;-82
2023/12/20 08:46:39;;;;;;;14.02;9.73;;;8.10;1.00;;;;;;5058012;28;20216;-82
2023/12/20 08:49:09;;;;;;;12.40;9.38;;;8.10;1.00;;;;;;5061651;28;20228;-81
2023/12/20 08:51:41;;;;;;;17.48;8.82;;;8.00;1.00;;;;;;5065382;28;20256;-80
2023/12/20 08:54:13;;;;;;;15.88;9.73;;;8.10;1.00;;;;;;5065310;28;20283;-81
2023/12/20 08:56:41;;;;;;;11.75;9.05;;;8.00;1.00;;;;;;5066222;28;20958;-82
2023/12/20 08:59:10;;;;;;;12.05;9.15;;;8.10;1.00;;;;;;5059417;28;20225;-81
2023/12/20 09:01:39;;;;;;;9.73;8.10;;;8.10;1.00;;;;;;5062867;28;20752;-82
2023/12/20 09:04:08;;;;;;;8.02;7.13;;;8.10;1.00;;;;;;5061405;28;20220;-82
2023/12/20 09:06:37;;;;;;;9.27;7.20;;;8.10;1.00;;;;;;5060954;28;20224;-82
2023/12/20 09:09:08;;;;;;;7.72;6.90;;;8.00;1.00;;;;;;5057987;28;20220;-82
2023/12/20 09:11:38;;;;;;;11.65;7.50;;;8.00;1.00;;;;;;5062642;28;20212;-83
2023/12/20 09:14:07;;;;;;;9.07;7.30;;;8.00;1.00;;;;;;5066787;28;20224;-81
2023/12/20 09:16:35;;;;;;;10.18;7.75;;;8.00;1.00;;;;;;5064815;28;20712;-82
2023/12/20 09:19:04;;;;;;;9.95;7.47;;;8.00;1.00;;;;;;5064525;28;20223;-82
2023/12/20 09:21:33;;;;;;;8.25;7.22;;;8.00;1.00;;;;;;5067569;28;20232;-81
2023/12/20 09:24:01;;;;;;;9.80;6.68;;;8.00;1.00;;;;;;5078056;28;20282;-82
2023/12/20 09:26:30;;;;;;;10.32;7.38;;;7.90;1.00;;;;;;5064556;28;20226;-77
2023/12/20 09:29:00;;;;;;;7.85;6.70;;;8.00;1.00;;;;;;5067575;28;20228;-77
2023/12/20 09:31:32;;;;;;;9.15;7.40;;;7.90;1.00;;;;;;5061561;28;20237;-76
2023/12/20 09:34:01;;;;;;;10.13;7.10;;;8.00;1.00;;;;;;5074801;28;20692;-74
2023/12/20 09:36:31;;;;;;;9.68;7.57;;;8.00;1.00;;;;;;5064571;28;20232;-73
2023/12/20 09:39:00;;;;;;;8.02;6.35;;;8.10;1.00;;;;;;5060757;28;20318;-73
2023/12/20 09:41:32;;;;;;;8.68;7.03;;;8.10;1.00;;;;;;5055074;28;20289;-73
2023/12/20 09:44:04;;;;;;;8.55;6.88;;;8.10;1.00;;;;;;5061229;28;20229;-74
2023/12/20 09:46:35;;;;;;;7.85;6.78;;;8.20;1.00;;;;;;5060947;28;20216;-75
2023/12/20 09:49:05;;;;;;;8.98;6.90;;;8.10;1.00;;;;;;5061092;28;20220;-73
2023/12/20 09:51:34;;;;;;;8.60;7.15;;;8.20;1.00;;;;;;5055469;28;20227;-74
2023/12/20 09:54:04;;;;;;;8.80;6.93;;;8.20;1.00;;;;;;5057100;28;20228;-75
2023/12/20 09:56:34;;;;;;;7.93;7.13;;;8.20;1.00;;;;;;5058067;28;20310;-72
2023/12/20 09:59:04;;;;;;;7.97;6.65;;;8.30;1.00;;;;;;5053704;28;20213;-75
2023/12/20 10:01:34;;;;;;;8.68;6.25;;;8.20;1.00;;;;;;5064005;28;20227;-73
2023/12/20 10:04:08;;;;;;;7.82;6.72;;;8.10;1.00;;;;;;5059053;28;20228;-72
2023/12/20 10:06:41;;;;;;;7.72;6.75;;;8.10;1.00;;;;;;5064866;28;20228;-75
2023/12/20 10:09:10;;;;;;;8.10;6.50;;;8.10;1.00;;;;;;5063223;28;20278;-73
2023/12/20 10:11:39;;;;;;;8.35;6.90;;;8.10;1.00;;;;;;5059629;28;20914;-74
2023/12/20 10:14:12;;;;;;;7.93;6.90;;;8.10;1.00;;;;;;5091804;28;20231;-73
2023/12/20 10:16:42;;;;;;;10.32;6.85;;;8.10;1.00;;;;;;5060623;28;20222;-73
2023/12/20 10:19:11;;;;;;;7.75;6.80;;;8.10;1.00;;;;;;5054917;28;20248;-73
2023/12/20 10:21:40;;;;;;;8.20;7.07;;;8.10;1.00;;;;;;5053920;28;20252;-74
2023/12/20 10:24:08;;;;;;;8.70;6.57;;;8.10;1.00;;;;;;5052411;28;20239;-73
2023/12/20 10:26:38;;;;;;;8.18;6.82;;;8.00;1.00;;;;;;5058996;28;20220;-73
2023/12/20 10:29:06;;;;;;;8.52;7.05;;;8.00;1.00;;;;;;5057838;28;20311;-73
2023/12/20 10:31:38;;;;;;;9.85;7.97;;;8.10;1.00;;;;;;5059815;28;20228;-74
2023/12/20 10:34:07;;;;;;;9.25;8.05;;;8.20;1.00;;;;;;5060298;28;20216;-75
2023/12/20 10:36:36;;;;;;;9.40;7.78;;;8.10;1.00;;;;;;5059362;28;20595;-73
2023/12/20 10:39:08;;;;;;;11.65;8.15;;;8.10;1.00;;;;;;5062791;28;20220;-73
2023/12/20 10:41:41;;;;;;;10.82;7.88;;;8.20;1.00;;;;;;5064827;28;20642;-74
2023/12/20 10:44:11;;;;;;;10.75;7.38;;;8.10;1.00;;;;;;5070939;28;20228;-77
2023/12/20 10:46:47;;;;;;;9.93;7.03;;;8.10;1.00;;;;;;5061159;28;20225;-76
2023/12/20 10:49:16;;;;;;;9.20;7.78;;;8.10;1.00;;;;;;5061733;28;20231;-76
2023/12/20 10:51:48;;;;;;;9.77;7.38;;;8.20;1.00;;;;;;5062593;28;20278;-76
2023/12/20 10:54:17;;;;;;;8.38;7.03;;;8.30;1.00;;;;;;5060163;28;20228;-76
2023/12/20 10:56:45;;;;;;;10.40;7.18;;;8.30;1.00;;;;;;5062636;28;20608;-77
2023/12/20 10:59:17;;;;;;;7.60;6.47;;;8.20;1.00;;;;;;5061589;28;20662;-77
2023/12/20 11:01:49;;;;;;;10.05;7.30;;;8.20;1.00;;;;;;5063942;28;20242;-78
2023/12/20 11:04:36;;;;;;;10.32;7.10;;;8.30;1.00;;;;;;5059451;28;20229;-76
2023/12/20 11:07:17;;;;;;;7.10;6.38;;;8.30;1.00;;;;;;5063974;28;20227;-75
2023/12/20 11:09:56;;;;;;;8.05;7.10;;;8.20;1.00;;;;;;5066497;28;21455;-81
2023/12/20 11:12:33;;;;;;;8.98;7.07;;;8.20;1.00;;;;;;5058759;28;20228;-81
2023/12/20 11:15:04;;;;;;;8.77;7.47;;;8.20;1.00;;;;;;5058069;28;20219;-76
2023/12/20 11:17:34;;;;;;;10.57;7.60;;;8.20;1.00;;;;;;5059581;28;20362;-76
2023/12/20 11:20:07;;;;;;;11.65;7.25;;;8.10;1.00;;;;;;5059126;28;20226;-76
2023/12/20 11:22:38;;;;;;;8.75;7.32;;;8.10;1.00;;;;;;5052969;28;20252;-77
2023/12/20 11:25:10;;;;;;;9.48;6.80;;;8.20;1.00;;;;;;5059797;28;20224;-76
2023/12/20 11:27:42;;;;;;;8.82;7.32;;;8.20;1.00;;;;;;5081371;28;20343;-80
2023/12/20 11:30:15;;;;;;;9.80;6.72;;;8.10;1.00;;;;;;5079636;28;20281;-81
2023/12/20 11:32:47;;;;;;;9.02;6.40;;;8.20;1.00;;;;;;5060733;28;20324;-79
2023/12/20 11:35:20;;;;;;;6.88;6.15;;;8.20;1.00;;;;;;5063503;28;20730;-77
2023/12/20 11:37:50;;;;;;;10.48;7.20;;;8.20;1.00;;;;;;5078637;28;20251;-79
2023/12/20 11:40:21;;;;;;;8.25;6.50;;;8.10;1.00;;;;;;5069328;28;20220;-79
2023/12/20 11:42:52;;;;;;;8.82;6.65;;;8.30;1.00;;;;;;5056823;28;20267;-77
2023/12/20 11:45:22;;;;;;;9.38;6.25;;;8.20;1.00;;;;;;5063169;28;21188;-79
2023/12/20 11:47:54;;;;;;;7.25;6.22;;;8.10;1.00;;;;;;5067074;28;20319;-78
2023/12/20 11:50:24;;;;;;;7.97;6.82;;;8.10;1.00;;;;;;5061986;28;20224;-81
2023/12/20 11:52:55;;;;;;;9.23;7.20;;;8.10;1.00;;;;;;5055839;28;20750;-79
2023/12/20 11:55:24;;;;;;;19.73;16.02;;;8.10;1.00;;;;;;5069343;28;20326;-80
2023/12/20 11:57:53;;;;;;;9.25;8.25;;;8.00;1.00;;;;;;5059870;28;20278;-80
2023/12/20 12:00:22;;;;;;;9.15;7.15;;;8.00;1.00;;;;;;5059241;28;20234;-79
2023/12/20 12:03:02;;;;;;;9.98;7.95;;;8.00;1.00;;;;;;5060045;28;20231;-80
2023/12/20 12:05:32;;;;;;;9.30;7.45;;;8.10;1.00;;;;;;5064977;28;20215;-78
2023/12/20 12:08:02;;;;;;;8.77;7.70;;;8.10;1.00;;;;;;5063799;28;20259;-78
2023/12/20 12:10:33;;;;;;;9.45;7.70;;;8.20;1.00;;;;;;5061887;28;20224;-81
2023/12/20 12:13:02;;;;;;;9.20;7.78;;;8.10;1.00;;;;;;5066405;28;20223;-76
2023/12/20 12:15:30;;;;;;;9.82;7.78;;;8.10;1.00;;;;;;5060035;28;20224;-78
2023/12/20 12:18:01;;;;;;;10.30;8.07;;;8.10;1.00;;;;;;5057005;28;20602;-78
2023/12/20 12:20:33;;;;;;;9.85;7.82;;;8.00;1.00;;;;;;5058240;28;20254;-76
2023/12/20 12:23:06;;;;;;;9.95;8.20;;;8.00;1.00;;;;;;5059922;28;20227;-78
2023/12/20 12:25:37;;;;;;;10.88;8.68;;;8.00;1.00;;;;;;5063364;28;20304;-79
2023/12/20 12:28:11;;;;;;;10.98;8.20;;;8.00;1.00;;;;;;5061778;28;20644;-79
2023/12/20 12:30:39;;;;;;;10.23;8.35;;;7.90;1.00;;;;;;5061083;28;20221;-78
2023/12/20 12:33:22;;;;;;;11.73;8.90;;;8.00;1.00;;;;;;5059455;28;20224;-81
2023/12/20 12:35:51;;;;;;;10.27;7.88;;;8.00;1.00;;;;;;5059953;28;20220;-76
2023/12/20 12:38:21;;;;;;;9.90;7.85;;;8.00;1.00;;;;;;5057826;28;20326;-77
2023/12/20 12:40:53;;;;;;;11.27;8.30;;;8.00;1.00;;;;;;5061152;28;20583;-76
2023/12/20 12:43:22;;;;;;;10.05;8.30;;;8.10;1.00;;;;;;5059647;28;20248;-77
2023/12/20 12:45:51;;;;;;;9.80;8.10;;;7.90;1.00;;;;;;5038318;28;20228;-76
2023/12/20 12:48:22;;;;;;;11.07;8.80;;;7.90;1.00;;;;;;5058440;28;20239;-74
2023/12/20 12:50:53;;;;;;;11.48;9.18;;;7.90;1.00;;;;;;5057197;28;20219;-74
2023/12/20 12:53:21;;;;;;;12.88;9.65;;;7.90;1.00;;;;;;5064566;28;20782;-76
2023/12/20 12:55:50;;;;;;;12.90;9.70;;;7.90;1.00;;;;;;5063128;28;20248;-74
2023/12/20 12:58:19;;;;;;;11.48;9.43;;;7.80;1.00;;;;;;5063143;28;20232;-74
2023/12/20 13:00:48;;;;;;;14.93;9.65;;;7.80;1.00;;;;;;5065358;28;20679;-75
2023/12/20 13:03:17;;;;;;;13.73;9.57;;;7.80;1.00;;;;;;5057816;28;20220;-76
2023/12/20 13:05:47;;;;;;;12.23;9.93;;;7.80;1.00;;;;;;5061550;28;20227;-75
2023/12/20 13:08:16;;;;;;;15.80;9.98;;;7.80;1.00;;;;;;5059279;28;20715;-74
2023/12/20 13:10:45;;;;;;;12.23;9.45;;;7.80;1.00;;;;;;5058822;28;20579;-75